Time,TemperatureF,DewpointF,PressureIn,WindDirection,WindDirectionDegrees,WindSpeedMPH,WindSpeedGustMPH,Humidity,HourlyPrecipIn,Conditions,Clouds,dailyrainin,SoftwareType,DateUTC
2013-09-29 00:03:00,51.8,42.7,29.82,SSW,194,2.0,5.0,71,0.00,,CLR,0.00,VWS V14.00,2013-09-29 05:03:00,
2013-09-29 00:08:00,51.8,42.7,29.82,SSW,198,1.0,7.0,71,0.00,,CLR,0.00,VWS V14.00,2013-09-29 05:08:00,
2013-09-29 00:13:00,51.8,42.7,29.82,SSW,198,0.0,3.0,71,0.00,,CLR,0.00,VWS V14.00,2013-09-29 05:13:00,
2013-09-29 00:18:00,51.6,42.5,29.82,SSW,198,0.0,3.0,71,0.00,,CLR,0.00,VWS V14.00,2013-09-29 05:18:00,
2013-09-29 00:23:00,51.5,42.4,29.82,SSW,199,0.0,5.0,71,0.00,,CLR,0.00,VWS V14.00,2013-09-29 05:23:00,
2013-09-29 00:28:00,51.4,42.7,29.82,SSW,199,0.0,5.0,72,0.00,,CLR,0.00,VWS V14.00,2013-09-29 05:28:00,
2013-09-29 00:33:00,51.3,42.6,29.82,SSW,201,0.0,5.0,72,0.00,,CLR,0.00,VWS V14.00,2013-09-29 05:33:00,
2013-09-29 00:38:00,51.3,42.6,29.82,SSW,201,0.0,5.0,72,0.00,,CLR,0.00,VWS V14.00,2013-09-29 05:38:00,
2013-09-29 00:43:00,51.3,42.6,29.82,SSW,201,0.0,3.0,72,0.00,,CLR,0.00,VWS V14.00,2013-09-29 05:43:00,
2013-09-29 00:48:00,51.2,42.5,29.82,SSW,201,0.0,4.0,72,0.00,,CLR,0.00,VWS V14.00,2013-09-29 05:48:00,
2013-09-29 00:53:00,51.1,42.4,29.82,SSW,201,0.0,3.0,72,0.00,,CLR,0.00,VWS V14.00,2013-09-29 05:53:00,
2013-09-29 00:58:00,51.0,42.3,29.82,SSW,201,0.0,4.0,72,0.00,,CLR,0.00,VWS V14.00,2013-09-29 05:58:00,
2013-09-29 01:03:00,51.0,42.3,29.82,SSW,201,0.0,4.0,72,0.00,,CLR,0.00,VWS V14.00,2013-09-29 06:03:00,
2013-09-29 01:08:00,50.9,42.2,29.82,SSW,202,0.0,4.0,72,0.00,,CLR,0.00,VWS V14.00,2013-09-29 06:08:00,
2013-09-29 01:13:00,50.8,42.1,29.82,SSW,202,0.0,0.0,72,0.00,,CLR,0.00,VWS V14.00,2013-09-29 06:13:00,
2013-09-29 01:18:00,50.6,41.9,29.82,SSW,202,0.0,1.0,72,0.00,,CLR,0.00,VWS V14.00,2013-09-29 06:18:00,
2013-09-29 01:23:00,50.4,42.1,29.82,SSW,202,0.0,0.0,73,0.00,,CLR,0.00,VWS V14.00,2013-09-29 06:23:00,
2013-09-29 01:28:00,50.2,41.9,29.82,SSW,202,0.0,0.0,73,0.00,,CLR,0.00,VWS V14.00,2013-09-29 06:28:00,
2013-09-29 01:33:00,49.9,41.6,29.82,SSW,202,0.0,0.0,73,0.00,,CLR,0.00,VWS V14.00,2013-09-29 06:33:00,
2013-09-29 01:38:00,49.6,41.7,29.82,SSW,202,0.0,0.0,74,0.00,,CLR,0.00,VWS V14.00,2013-09-29 06:38:00,
2013-09-29 01:43:00,49.4,41.8,29.82,SSW,202,0.0,0.0,75,0.00,,CLR,0.00,VWS V14.00,2013-09-29 06:43:00,
2013-09-29 01:48:00,49.1,41.5,29.82,SSW,202,0.0,1.0,75,0.00,,CLR,0.00,VWS V14.00,2013-09-29 06:48:00,
2013-09-29 01:53:00,49.0,41.8,29.82,SSW,202,0.0,0.0,76,0.00,,CLR,0.00,VWS V14.00,2013-09-29 06:53:00,
2013-09-29 01:58:00,48.8,41.6,29.82,SSW,202,0.0,0.0,76,0.00,,CLR,0.00,VWS V14.00,2013-09-29 06:58:00,
2013-09-29 02:03:00,48.7,41.5,29.82,SSW,202,0.0,0.0,76,0.00,,CLR,0.00,VWS V14.00,2013-09-29 07:03:00,
2013-09-29 02:08:00,48.7,41.5,29.82,SSW,202,0.0,0.0,76,0.00,,CLR,0.00,VWS V14.00,2013-09-29 07:08:00,
2013-09-29 02:13:00,48.6,41.4,29.82,SSW,202,0.0,0.0,76,0.00,,CLR,0.00,VWS V14.00,2013-09-29 07:13:00,
2013-09-29 02:18:00,48.4,41.2,29.82,SSW,202,0.0,0.0,76,0.00,,CLR,0.00,VWS V14.00,2013-09-29 07:18:00,
2013-09-29 02:23:00,48.2,41.3,29.82,SSW,202,0.0,0.0,77,0.00,,CLR,0.00,VWS V14.00,2013-09-29 07:23:00,
2013-09-29 02:29:00,48.0,41.2,29.82,SSW,202,0.0,0.0,77,0.00,,CLR,0.00,VWS V14.00,2013-09-29 07:29:00,
2013-09-29 02:34:00,47.9,41.0,29.82,SSW,202,0.0,0.0,77,0.00,,CLR,0.00,VWS V14.00,2013-09-29 07:34:00,
2013-09-29 02:39:00,47.8,41.3,29.82,SSW,202,0.0,0.0,78,0.00,,CLR,0.00,VWS V14.00,2013-09-29 07:39:00,
2013-09-29 02:44:00,47.6,41.1,29.82,SSW,202,0.0,0.0,78,0.00,,CLR,0.00,VWS V14.00,2013-09-29 07:44:00,
2013-09-29 02:49:00,47.4,40.9,29.82,SSW,202,0.0,0.0,78,0.00,,CLR,0.00,VWS V14.00,2013-09-29 07:49:00,
2013-09-29 02:54:00,47.2,40.7,29.82,SSW,202,0.0,0.0,78,0.00,,CLR,0.00,VWS V14.00,2013-09-29 07:54:00,
2013-09-29 02:59:00,46.9,40.4,29.82,SSW,202,0.0,0.0,78,0.00,,CLR,0.00,VWS V14.00,2013-09-29 07:59:00,
2013-09-29 03:04:00,46.7,40.2,29.82,SSW,202,0.0,0.0,78,0.00,,CLR,0.00,VWS V14.00,2013-09-29 08:04:00,
2013-09-29 03:09:00,46.3,40.2,29.82,SSW,202,0.0,0.0,79,0.00,,CLR,0.00,VWS V14.00,2013-09-29 08:09:00,
2013-09-29 03:14:00,46.1,40.0,29.82,SSW,202,0.0,0.0,79,0.00,,CLR,0.00,VWS V14.00,2013-09-29 08:14:00,
2013-09-29 03:19:00,45.8,40.0,29.82,SSW,202,0.0,0.0,80,0.00,,CLR,0.00,VWS V14.00,2013-09-29 08:19:00,
2013-09-29 03:24:00,45.6,39.8,29.82,SSW,202,0.0,0.0,80,0.00,,CLR,0.00,VWS V14.00,2013-09-29 08:24:00,
2013-09-29 03:29:00,45.4,39.9,29.82,SSW,202,0.0,0.0,81,0.00,,CLR,0.00,VWS V14.00,2013-09-29 08:29:00,
2013-09-29 03:34:00,45.4,39.9,29.82,SSW,202,0.0,2.0,81,0.00,,CLR,0.00,VWS V14.00,2013-09-29 08:34:00,
2013-09-29 03:39:00,45.4,40.2,29.82,SSW,202,0.0,2.0,82,0.00,,CLR,0.00,VWS V14.00,2013-09-29 08:39:00,
2013-09-29 03:44:00,45.4,40.2,29.82,SSW,202,0.0,0.0,82,0.00,,CLR,0.00,VWS V14.00,2013-09-29 08:44:00,
2013-09-29 03:49:00,45.3,40.1,29.82,SSW,202,0.0,0.0,82,0.00,,CLR,0.00,VWS V14.00,2013-09-29 08:49:00,
2013-09-29 03:54:00,45.1,39.6,29.82,SSW,202,0.0,0.0,81,0.00,,CLR,0.00,VWS V14.00,2013-09-29 08:54:00,
2013-09-29 03:59:00,44.9,39.8,29.82,SSW,202,0.0,0.0,82,0.00,,CLR,0.00,VWS V14.00,2013-09-29 08:59:00,
2013-09-29 04:04:00,44.6,39.5,29.82,SSW,202,0.0,0.0,82,0.00,,CLR,0.00,VWS V14.00,2013-09-29 09:04:00,
2013-09-29 04:09:00,44.5,39.4,29.82,SSW,202,0.0,1.0,82,0.00,,CLR,0.00,VWS V14.00,2013-09-29 09:09:00,
2013-09-29 04:14:00,44.3,39.2,29.82,SSW,202,0.0,0.0,82,0.00,,CLR,0.00,VWS V14.00,2013-09-29 09:14:00,
2013-09-29 04:19:00,44.1,39.3,29.82,SSW,202,0.0,0.0,83,0.00,,CLR,0.00,VWS V14.00,2013-09-29 09:19:00,
2013-09-29 04:24:00,44.0,39.2,29.82,SSW,202,0.0,1.0,83,0.00,,CLR,0.00,VWS V14.00,2013-09-29 09:24:00,
2013-09-29 04:29:00,43.9,39.1,29.82,SSW,202,0.0,1.0,83,0.00,,CLR,0.00,VWS V14.00,2013-09-29 09:29:00,
2013-09-29 04:34:00,43.8,39.0,29.82,SSW,202,0.0,0.0,83,0.00,,CLR,0.00,VWS V14.00,2013-09-29 09:34:00,
2013-09-29 04:39:00,43.7,38.9,29.82,SSW,202,0.0,0.0,83,0.00,,CLR,0.00,VWS V14.00,2013-09-29 09:39:00,
2013-09-29 04:44:00,43.6,38.8,29.82,SSW,202,0.0,0.0,83,0.00,,CLR,0.00,VWS V14.00,2013-09-29 09:44:00,
2013-09-29 04:49:00,43.5,38.7,29.82,SSW,202,0.0,0.0,83,0.00,,CLR,0.00,VWS V14.00,2013-09-29 09:49:00,
2013-09-29 04:54:00,43.4,38.9,29.82,SSW,202,0.0,0.0,84,0.00,,CLR,0.00,VWS V14.00,2013-09-29 09:54:00,
2013-09-29 04:59:00,43.3,38.8,29.82,SSW,202,0.0,0.0,84,0.00,,CLR,0.00,VWS V14.00,2013-09-29 09:59:00,
2013-09-29 05:04:00,43.3,38.8,29.82,SSW,202,0.0,0.0,84,0.00,,CLR,0.00,VWS V14.00,2013-09-29 10:04:00,
2013-09-29 05:09:00,43.3,38.8,29.82,SSW,202,0.0,0.0,84,0.00,,CLR,0.00,VWS V14.00,2013-09-29 10:09:00,
2013-09-29 05:14:00,43.2,38.7,29.82,SSW,202,0.0,0.0,84,0.00,,CLR,0.00,VWS V14.00,2013-09-29 10:14:00,
2013-09-29 05:19:00,43.1,38.6,29.82,SSW,202,0.0,0.0,84,0.00,,CLR,0.00,VWS V14.00,2013-09-29 10:19:00,
2013-09-29 05:24:00,43.0,38.5,29.82,SSW,202,0.0,0.0,84,0.00,,CLR,0.00,VWS V14.00,2013-09-29 10:24:00,
2013-09-29 05:29:00,42.9,38.4,29.82,SSW,202,0.0,0.0,84,0.00,,CLR,0.00,VWS V14.00,2013-09-29 10:29:00,
2013-09-29 05:34:00,42.9,38.7,29.82,SSW,202,0.0,0.0,85,0.00,,CLR,0.00,VWS V14.00,2013-09-29 10:34:00,
2013-09-29 05:39:00,42.9,38.7,29.82,SSW,202,0.0,0.0,85,0.00,,CLR,0.00,VWS V14.00,2013-09-29 10:39:00,
2013-09-29 05:44:00,42.9,38.7,29.82,SSW,202,0.0,0.0,85,0.00,,CLR,0.00,VWS V14.00,2013-09-29 10:44:00,
2013-09-29 05:49:00,42.9,38.7,29.82,SSW,202,0.0,0.0,85,0.00,,CLR,0.00,VWS V14.00,2013-09-29 10:49:00,
2013-09-29 05:54:00,43.0,38.8,29.82,SSW,202,0.0,0.0,85,0.00,,CLR,0.00,VWS V14.00,2013-09-29 10:54:00,
2013-09-29 05:59:00,43.1,38.9,29.83,SSW,202,0.0,0.0,85,0.00,,CLR,0.00,VWS V14.00,2013-09-29 10:59:00,
2013-09-29 06:04:00,43.2,39.3,29.83,SSW,202,0.0,0.0,86,0.00,,CLR,0.00,VWS V14.00,2013-09-29 11:04:00,
2013-09-29 06:09:00,43.3,39.4,29.82,SSW,202,0.0,0.0,86,0.00,,CLR,0.00,VWS V14.00,2013-09-29 11:09:00,
2013-09-29 06:14:00,43.6,39.7,29.83,SSW,202,0.0,0.0,86,0.00,,CLR,0.00,VWS V14.00,2013-09-29 11:14:00,
2013-09-29 06:19:00,43.7,39.8,29.83,SSW,202,0.0,0.0,86,0.00,,CLR,0.00,VWS V14.00,2013-09-29 11:19:00,
2013-09-29 06:24:00,43.8,39.6,29.82,SSW,202,0.0,0.0,85,0.00,,CLR,0.00,VWS V14.00,2013-09-29 11:24:00,
2013-09-29 06:29:00,43.9,39.7,29.82,SSW,202,0.0,0.0,85,0.00,,CLR,0.00,VWS V14.00,2013-09-29 11:29:00,
2013-09-29 06:34:00,44.0,39.8,29.82,SSW,202,0.0,0.0,85,0.00,,CLR,0.00,VWS V14.00,2013-09-29 11:34:00,
2013-09-29 06:39:00,44.0,39.8,29.82,SSW,202,0.0,0.0,85,0.00,,CLR,0.00,VWS V14.00,2013-09-29 11:39:00,
2013-09-29 06:44:00,44.0,39.8,29.82,SSW,202,0.0,0.0,85,0.00,,CLR,0.00,VWS V14.00,2013-09-29 11:44:00,
2013-09-29 06:50:00,44.1,39.6,29.82,SSW,202,0.0,0.0,84,0.00,,CLR,0.00,VWS V14.00,2013-09-29 11:50:00,
2013-09-29 06:55:00,43.9,39.4,29.82,SSW,202,0.0,0.0,84,0.00,,CLR,0.00,VWS V14.00,2013-09-29 11:55:00,
2013-09-29 07:00:00,43.8,39.3,29.82,SSW,202,0.0,0.0,84,0.00,,CLR,0.00,VWS V14.00,2013-09-29 12:00:00,
2013-09-29 07:05:00,43.7,39.2,29.82,SSW,202,0.0,0.0,84,0.00,,CLR,0.00,VWS V14.00,2013-09-29 12:05:00,
2013-09-29 07:10:00,43.8,39.3,29.82,SSW,202,0.0,0.0,84,0.00,,CLR,0.00,VWS V14.00,2013-09-29 12:10:00,
2013-09-29 07:15:00,44.0,39.5,29.82,SSW,202,0.0,0.0,84,0.00,,CLR,0.00,VWS V14.00,2013-09-29 12:15:00,
2013-09-29 07:20:00,44.1,39.6,29.82,SSW,202,0.0,0.0,84,0.00,,CLR,0.00,VWS V14.00,2013-09-29 12:20:00,
2013-09-29 07:25:00,44.2,39.4,29.82,SSW,202,0.0,0.0,83,0.00,,CLR,0.00,VWS V14.00,2013-09-29 12:25:00,
2013-09-29 07:30:00,44.2,39.4,29.82,SSW,202,0.0,0.0,83,0.00,,CLR,0.00,VWS V14.00,2013-09-29 12:30:00,
2013-09-29 07:35:00,44.0,39.2,29.82,SSW,202,0.0,0.0,83,0.00,,CLR,0.00,VWS V14.00,2013-09-29 12:35:00,
2013-09-29 07:40:00,44.0,39.2,29.82,SSW,202,0.0,0.0,83,0.00,,CLR,0.00,VWS V14.00,2013-09-29 12:40:00,
2013-09-29 07:45:00,44.1,39.3,29.82,SSW,202,0.0,0.0,83,0.00,,CLR,0.00,VWS V14.00,2013-09-29 12:45:00,
2013-09-29 07:50:00,44.3,39.5,29.82,SSW,202,0.0,0.0,83,0.00,,CLR,0.00,VWS V14.00,2013-09-29 12:50:00,
2013-09-29 07:55:00,44.5,39.7,29.82,SSW,202,0.0,0.0,83,0.00,,CLR,0.00,VWS V14.00,2013-09-29 12:55:00,
2013-09-29 08:00:00,44.7,39.9,29.82,SSW,202,0.0,2.0,83,0.00,,CLR,0.00,VWS V14.00,2013-09-29 13:00:00,
2013-09-29 08:05:00,45.0,40.2,29.82,SSW,202,0.0,2.0,83,0.00,,CLR,0.00,VWS V14.00,2013-09-29 13:05:00,
2013-09-29 08:10:00,45.3,40.5,29.81,SSW,202,0.0,2.0,83,0.00,,CLR,0.00,VWS V14.00,2013-09-29 13:10:00,
2013-09-29 08:15:00,45.5,40.3,29.81,SSW,202,0.0,4.0,82,0.00,,CLR,0.00,VWS V14.00,2013-09-29 13:15:00,
2013-09-29 08:20:00,45.9,40.7,29.81,SSW,202,0.0,0.0,82,0.00,,CLR,0.00,VWS V14.00,2013-09-29 13:20:00,
2013-09-29 08:25:00,46.2,40.7,29.81,SSW,195,3.0,8.0,81,0.00,,CLR,0.00,VWS V14.00,2013-09-29 13:25:00,
2013-09-29 08:30:00,46.6,41.1,29.81,SSW,195,0.0,5.0,81,0.00,,CLR,0.00,VWS V14.00,2013-09-29 13:30:00,
2013-09-29 08:35:00,47.0,41.2,29.80,SSW,195,4.0,5.0,80,0.00,,CLR,0.00,VWS V14.00,2013-09-29 13:35:00,
2013-09-29 08:40:00,47.3,41.5,29.80,SSW,194,0.0,0.0,80,0.00,,CLR,0.00,VWS V14.00,2013-09-29 13:40:00,
2013-09-29 08:45:00,47.7,41.8,29.81,SSW,194,2.0,5.0,80,0.00,,CLR,0.00,VWS V14.00,2013-09-29 13:45:00,
2013-09-29 08:50:00,48.0,41.8,29.81,SSW,194,0.0,0.0,79,0.00,,CLR,0.00,VWS V14.00,2013-09-29 13:50:00,
2013-09-29 08:55:00,48.3,42.1,29.81,SSW,194,3.0,6.0,79,0.00,,CLR,0.00,VWS V14.00,2013-09-29 13:55:00,
2013-09-29 09:00:00,48.6,42.1,29.81,South,185,1.0,5.0,78,0.00,,CLR,0.00,VWS V14.00,2013-09-29 14:00:00,
2013-09-29 09:05:00,48.9,42.3,29.81,South,185,0.0,6.0,78,0.00,,CLR,0.00,VWS V14.00,2013-09-29 14:05:00,
2013-09-29 09:10:00,49.2,42.3,29.81,South,182,2.0,7.0,77,0.00,,CLR,0.00,VWS V14.00,2013-09-29 14:10:00,
2013-09-29 09:15:00,49.5,42.6,29.81,South,181,3.0,8.0,77,0.00,,CLR,0.00,VWS V14.00,2013-09-29 14:15:00,
2013-09-29 09:20:00,49.9,43.0,29.81,South,181,0.0,0.0,77,0.00,,CLR,0.00,VWS V14.00,2013-09-29 14:20:00,
2013-09-29 09:25:00,50.4,43.5,29.81,South,182,0.0,3.0,77,0.00,,CLR,0.00,VWS V14.00,2013-09-29 14:25:00,
2013-09-29 09:31:00,50.9,43.6,29.81,South,177,3.0,6.0,76,0.00,,CLR,0.00,VWS V14.00,2013-09-29 14:31:00,
2013-09-29 09:36:00,51.5,44.2,29.80,South,176,0.0,8.0,76,0.00,,CLR,0.00,VWS V14.00,2013-09-29 14:36:00,
2013-09-29 09:41:00,52.1,44.4,29.80,SSE,168,0.0,0.0,75,0.00,,CLR,0.00,VWS V14.00,2013-09-29 14:41:00,
2013-09-29 09:46:00,52.9,44.8,29.80,SSE,166,0.0,8.0,74,0.00,,CLR,0.00,VWS V14.00,2013-09-29 14:46:00,
2013-09-29 09:51:00,53.3,44.5,29.79,SSE,163,0.0,8.0,72,0.00,,CLR,0.00,VWS V14.00,2013-09-29 14:51:00,
2013-09-29 09:56:00,53.5,44.7,29.80,SSE,164,0.0,8.0,72,0.00,,CLR,0.00,VWS V14.00,2013-09-29 14:56:00,
2013-09-29 10:01:00,53.7,44.9,29.79,SSE,163,0.0,1.0,72,0.00,,CLR,0.00,VWS V14.00,2013-09-29 15:01:00,
2013-09-29 10:06:00,54.1,45.7,29.79,SSE,163,0.0,1.0,73,0.00,,CLR,0.00,VWS V14.00,2013-09-29 15:06:00,
2013-09-29 10:11:00,54.7,46.2,29.79,SSE,162,5.0,6.0,73,0.00,,CLR,0.00,VWS V14.00,2013-09-29 15:11:00,
2013-09-29 10:16:00,55.4,46.9,29.80,SSE,152,0.0,9.0,73,0.00,,CLR,0.00,VWS V14.00,2013-09-29 15:16:00,
2013-09-29 10:21:00,55.9,47.0,29.80,SSE,152,0.0,6.0,72,0.00,,CLR,0.00,VWS V14.00,2013-09-29 15:21:00,
2013-09-29 10:26:00,56.4,47.1,29.79,SSE,153,0.0,8.0,71,0.00,,CLR,0.00,VWS V14.00,2013-09-29 15:26:00,
2013-09-29 10:31:00,57.3,47.6,29.79,SSE,154,0.0,0.0,70,0.00,,CLR,0.00,VWS V14.00,2013-09-29 15:31:00,
2013-09-29 10:36:00,58.2,48.5,29.79,SSE,154,4.0,4.0,70,0.00,,CLR,0.00,VWS V14.00,2013-09-29 15:36:00,
2013-09-29 10:41:00,58.8,48.7,29.79,SSE,160,6.0,8.0,69,0.00,,CLR,0.00,VWS V14.00,2013-09-29 15:41:00,
2013-09-29 10:46:00,59.2,47.5,29.79,SSE,165,4.0,11.0,65,0.00,,CLR,0.00,VWS V14.00,2013-09-29 15:46:00,
2013-09-29 10:51:00,59.7,48.7,29.79,SSE,165,0.0,5.0,67,0.00,,CLR,0.00,VWS V14.00,2013-09-29 15:51:00,
2013-09-29 10:56:00,60.3,48.1,29.78,South,178,3.0,14.0,64,0.00,,CLR,0.00,VWS V14.00,2013-09-29 15:56:00,
2013-09-29 11:01:00,60.8,48.6,29.78,SSE,163,0.0,8.0,64,0.00,,CLR,0.00,VWS V14.00,2013-09-29 16:01:00,
2013-09-29 11:06:00,61.2,48.1,29.78,SSE,168,0.0,11.0,62,0.00,,CLR,0.00,VWS V14.00,2013-09-29 16:06:00,
2013-09-29 11:11:00,61.8,48.2,29.78,SSE,167,1.0,8.0,61,0.00,,CLR,0.00,VWS V14.00,2013-09-29 16:11:00,
2013-09-29 11:16:00,62.2,48.2,29.78,South,173,4.0,12.0,60,0.00,,CLR,0.00,VWS V14.00,2013-09-29 16:16:00,
2013-09-29 11:21:00,62.7,47.7,29.78,SSE,166,0.0,9.0,58,0.00,,CLR,0.00,VWS V14.00,2013-09-29 16:21:00,
2013-09-29 11:26:00,63.1,47.6,29.77,SSE,168,8.0,13.0,57,0.00,,CLR,0.00,VWS V14.00,2013-09-29 16:26:00,
2013-09-29 11:31:00,63.6,48.6,29.77,South,170,4.0,7.0,58,0.00,,CLR,0.00,VWS V14.00,2013-09-29 16:31:00,
2013-09-29 11:36:00,64.4,48.4,29.77,SSE,154,1.0,11.0,56,0.00,,CLR,0.00,VWS V14.00,2013-09-29 16:36:00,
2013-09-29 11:41:00,65.0,49.9,29.77,SSE,155,6.0,6.0,58,0.00,,CLR,0.00,VWS V14.00,2013-09-29 16:41:00,
2013-09-29 11:46:00,65.5,48.4,29.76,SSE,156,8.0,10.0,54,0.00,,CLR,0.00,VWS V14.00,2013-09-29 16:46:00,
2013-09-29 11:51:00,65.7,48.6,29.76,SE,141,8.0,10.0,54,0.00,,CLR,0.00,VWS V14.00,2013-09-29 16:51:00,
2013-09-29 11:56:00,66.1,49.5,29.76,SE,139,7.0,10.0,55,0.00,,CLR,0.00,VWS V14.00,2013-09-29 16:56:00,
2013-09-29 12:01:00,66.5,49.8,29.75,SSE,160,0.0,0.0,55,0.00,,CLR,0.00,VWS V14.00,2013-09-29 17:01:00,
2013-09-29 12:06:00,67.2,51.0,29.75,SSE,157,9.0,9.0,56,0.00,,CLR,0.00,VWS V14.00,2013-09-29 17:06:00,
2013-09-29 12:11:00,67.8,50.6,29.75,SSE,152,1.0,10.0,54,0.00,,CLR,0.00,VWS V14.00,2013-09-29 17:11:00,
2013-09-29 12:16:00,68.2,50.4,29.75,South,173,0.0,11.0,53,0.00,,CLR,0.00,VWS V14.00,2013-09-29 17:16:00,
2013-09-29 12:21:00,68.8,50.5,29.75,SSE,164,0.0,10.0,52,0.00,,CLR,0.00,VWS V14.00,2013-09-29 17:21:00,
2013-09-29 12:26:00,69.2,50.8,29.75,South,176,2.0,11.0,52,0.00,,CLR,0.00,VWS V14.00,2013-09-29 17:26:00,
2013-09-29 12:31:00,69.1,50.8,29.75,South,188,3.0,12.0,52,0.00,,CLR,0.00,VWS V14.00,2013-09-29 17:31:00,
2013-09-29 12:36:00,68.5,49.7,29.74,SSE,162,2.0,12.0,51,0.00,,CLR,0.00,VWS V14.00,2013-09-29 17:36:00,
2013-09-29 12:41:00,68.6,50.8,29.74,SE,130,3.0,10.0,53,0.00,,CLR,0.00,VWS V14.00,2013-09-29 17:41:00,
2013-09-29 12:46:00,69.0,51.2,29.74,SSE,161,3.0,10.0,53,0.00,,CLR,0.00,VWS V14.00,2013-09-29 17:46:00,
2013-09-29 12:51:00,69.6,52.7,29.74,SSE,166,0.0,8.0,55,0.00,,CLR,0.00,VWS V14.00,2013-09-29 17:51:00,
2013-09-29 12:56:00,70.5,50.4,29.74,SSE,155,5.0,13.0,49,0.00,,CLR,0.00,VWS V14.00,2013-09-29 17:56:00,
2013-09-29 13:01:00,70.9,49.7,29.73,SSE,158,4.0,12.0,47,0.00,,CLR,0.00,VWS V14.00,2013-09-29 18:01:00,
2013-09-29 13:07:00,70.8,50.2,29.73,SSE,165,0.0,12.0,48,0.00,,CLR,0.00,VWS V14.00,2013-09-29 18:07:00,
2013-09-29 13:12:00,70.7,51.2,29.73,SSE,164,0.0,8.0,50,0.00,,CLR,0.00,VWS V14.00,2013-09-29 18:12:00,
2013-09-29 13:17:00,70.2,50.2,29.73,South,171,2.0,10.0,49,0.00,,CLR,0.00,VWS V14.00,2013-09-29 18:17:00,
2013-09-29 13:22:00,69.8,50.3,29.72,SSE,167,1.0,13.0,50,0.00,,CLR,0.00,VWS V14.00,2013-09-29 18:22:00,
2013-09-29 13:27:00,69.7,51.3,29.72,SSE,167,4.0,13.0,52,0.00,,CLR,0.00,VWS V14.00,2013-09-29 18:27:00,
2013-09-29 13:32:00,69.7,51.3,29.72,South,169,0.0,8.0,52,0.00,,CLR,0.00,VWS V14.00,2013-09-29 18:32:00,
2013-09-29 13:37:00,69.8,50.9,29.71,SSE,155,0.0,8.0,51,0.00,,CLR,0.00,VWS V14.00,2013-09-29 18:37:00,
2013-09-29 13:42:00,69.8,50.9,29.71,SSE,160,0.0,4.0,51,0.00,,CLR,0.00,VWS V14.00,2013-09-29 18:42:00,
2013-09-29 13:47:00,69.9,51.5,29.71,SSE,160,2.0,7.0,52,0.00,,CLR,0.00,VWS V14.00,2013-09-29 18:47:00,
2013-09-29 13:52:00,70.1,51.7,29.70,SSE,150,0.0,4.0,52,0.00,,CLR,0.00,VWS V14.00,2013-09-29 18:52:00,
2013-09-29 13:57:00,70.3,50.3,29.70,SSE,152,0.0,10.0,49,0.00,,CLR,0.00,VWS V14.00,2013-09-29 18:57:00,
2013-09-29 14:02:00,70.5,49.3,29.70,SSE,152,4.0,12.0,47,0.00,,CLR,0.00,VWS V14.00,2013-09-29 19:02:00,
2013-09-29 14:07:00,70.8,49.6,29.70,SSE,153,5.0,12.0,47,0.00,,CLR,0.00,VWS V14.00,2013-09-29 19:07:00,
2013-09-29 14:12:00,71.0,49.8,29.69,SSE,162,3.0,11.0,47,0.00,,CLR,0.00,VWS V14.00,2013-09-29 19:12:00,
2013-09-29 14:17:00,71.0,50.3,29.69,SSE,155,7.0,11.0,48,0.00,,CLR,0.00,VWS V14.00,2013-09-29 19:17:00,
2013-09-29 14:22:00,71.1,50.4,29.69,SSE,168,7.0,10.0,48,0.00,,CLR,0.00,VWS V14.00,2013-09-29 19:22:00,
2013-09-29 14:27:00,71.2,50.0,29.68,SSE,155,0.0,11.0,47,0.00,,CLR,0.00,VWS V14.00,2013-09-29 19:27:00,
2013-09-29 14:32:00,71.5,50.2,29.68,SSE,148,0.0,9.0,47,0.00,,CLR,0.00,VWS V14.00,2013-09-29 19:32:00,
2013-09-29 14:37:00,71.6,51.5,29.68,SSE,148,4.0,10.0,49,0.00,,CLR,0.00,VWS V14.00,2013-09-29 19:37:00,
2013-09-29 14:42:00,71.6,51.5,29.67,SE,136,0.0,10.0,49,0.00,,CLR,0.00,VWS V14.00,2013-09-29 19:42:00,
2013-09-29 14:47:00,71.7,51.5,29.68,SSE,159,4.0,12.0,49,0.00,,CLR,0.00,VWS V14.00,2013-09-29 19:47:00,
2013-09-29 14:48:00,71.8,51.6,29.68,SSE,150,6.0,12.0,49,0.00,,CLR,0.00,VWS V14.00,2013-09-29 19:48:00,
2013-09-29 14:53:00,71.8,51.1,29.68,SSE,155,4.0,7.0,48,0.00,,CLR,0.00,VWS V14.00,2013-09-29 19:53:00,
2013-09-29 14:58:00,71.8,50.5,29.67,SE,140,7.0,8.0,47,0.00,,CLR,0.00,VWS V14.00,2013-09-29 19:58:00,
2013-09-29 15:03:00,71.9,49.4,29.68,SE,146,3.0,12.0,45,0.00,,CLR,0.00,VWS V14.00,2013-09-29 20:03:00,
2013-09-29 15:08:00,72.0,50.7,29.67,SSE,161,5.0,12.0,47,0.00,,CLR,0.00,VWS V14.00,2013-09-29 20:08:00,
2013-09-29 15:13:00,72.2,49.7,29.67,SSE,150,4.0,10.0,45,0.00,,CLR,0.00,VWS V14.00,2013-09-29 20:13:00,
2013-09-29 15:18:00,72.4,49.9,29.67,SE,141,0.0,10.0,45,0.00,,CLR,0.00,VWS V14.00,2013-09-29 20:18:00,
2013-09-29 15:23:00,72.9,49.7,29.67,SSE,151,6.0,9.0,44,0.00,,CLR,0.00,VWS V14.00,2013-09-29 20:23:00,
2013-09-29 15:28:00,73.5,49.0,29.66,SSE,165,0.0,12.0,42,0.00,,CLR,0.00,VWS V14.00,2013-09-29 20:28:00,
2013-09-29 15:33:00,74.0,50.1,29.66,SE,144,4.0,11.0,43,0.00,,CLR,0.00,VWS V14.00,2013-09-29 20:33:00,
2013-09-29 15:38:00,74.5,48.6,29.66,SSE,159,3.0,12.0,40,0.00,,CLR,0.00,VWS V14.00,2013-09-29 20:38:00,
2013-09-29 15:43:00,74.7,48.8,29.65,SSE,157,8.0,11.0,40,0.00,,CLR,0.00,VWS V14.00,2013-09-29 20:43:00,
2013-09-29 15:48:00,74.8,47.5,29.65,SSE,163,5.0,12.0,38,0.00,,CLR,0.00,VWS V14.00,2013-09-29 20:48:00,
2013-09-29 15:53:00,75.1,47.1,29.65,SSE,155,6.0,12.0,37,0.00,,CLR,0.00,VWS V14.00,2013-09-29 20:53:00,
2013-09-29 15:58:00,75.1,47.1,29.65,SE,145,11.0,14.0,37,0.00,,CLR,0.00,VWS V14.00,2013-09-29 20:58:00,
2013-09-29 16:03:00,75.3,47.3,29.65,SSE,162,5.0,14.0,37,0.00,,CLR,0.00,VWS V14.00,2013-09-29 21:03:00,
2013-09-29 16:08:00,75.6,48.2,29.64,SSE,165,0.0,14.0,38,0.00,,CLR,0.00,VWS V14.00,2013-09-29 21:08:00,
2013-09-29 16:13:00,75.7,45.4,29.64,SSE,160,3.0,17.0,34,0.00,,CLR,0.00,VWS V14.00,2013-09-29 21:13:00,
2013-09-29 16:18:00,75.6,46.0,29.63,SSE,148,2.0,17.0,35,0.00,,CLR,0.00,VWS V14.00,2013-09-29 21:18:00,
2013-09-29 16:23:00,75.6,48.9,29.63,SE,140,3.0,10.0,39,0.00,,CLR,0.00,VWS V14.00,2013-09-29 21:23:00,
2013-09-29 16:28:00,76.0,47.9,29.64,SE,146,0.0,12.0,37,0.00,,CLR,0.00,VWS V14.00,2013-09-29 21:28:00,
2013-09-29 16:33:00,75.9,46.3,29.63,SE,138,6.0,17.0,35,0.00,,CLR,0.00,VWS V14.00,2013-09-29 21:33:00,
2013-09-29 16:38:00,75.6,46.8,29.64,SSE,156,6.0,17.0,36,0.00,,CLR,0.00,VWS V14.00,2013-09-29 21:38:00,
2013-09-29 16:43:00,75.3,46.5,29.63,SSE,161,9.0,15.0,36,0.00,,CLR,0.00,VWS V14.00,2013-09-29 21:43:00,
2013-09-29 16:48:00,75.2,47.2,29.63,South,174,3.0,16.0,37,0.00,,CLR,0.00,VWS V14.00,2013-09-29 21:48:00,
2013-09-29 16:53:00,75.1,47.1,29.63,SSE,151,5.0,11.0,37,0.00,,CLR,0.00,VWS V14.00,2013-09-29 21:53:00,
2013-09-29 16:58:00,74.9,46.9,29.63,SE,137,0.0,15.0,37,0.00,,CLR,0.00,VWS V14.00,2013-09-29 21:58:00,
2013-09-29 17:03:00,74.9,46.9,29.62,SSE,157,5.0,15.0,37,0.00,,CLR,0.00,VWS V14.00,2013-09-29 22:03:00,
2013-09-29 17:08:00,75.0,47.7,29.63,South,175,6.0,15.0,38,0.00,,CLR,0.00,VWS V14.00,2013-09-29 22:08:00,
2013-09-29 17:13:00,74.9,46.9,29.63,SSE,151,10.0,11.0,37,0.00,,CLR,0.00,VWS V14.00,2013-09-29 22:13:00,
2013-09-29 17:18:00,74.3,46.4,29.63,SE,142,4.0,12.0,37,0.00,,CLR,0.00,VWS V14.00,2013-09-29 22:18:00,
2013-09-29 17:23:00,73.8,46.6,29.62,SE,143,2.0,10.0,38,0.00,,CLR,0.00,VWS V14.00,2013-09-29 22:23:00,
2013-09-29 17:28:00,73.4,47.0,29.62,SE,145,0.0,11.0,39,0.00,,CLR,0.00,VWS V14.00,2013-09-29 22:28:00,
2013-09-29 17:33:00,73.1,47.4,29.62,SSE,152,3.0,11.0,40,0.00,,CLR,0.00,VWS V14.00,2013-09-29 22:33:00,
2013-09-29 17:38:00,73.0,47.3,29.62,SE,142,0.0,11.0,40,0.00,,CLR,0.00,VWS V14.00,2013-09-29 22:38:00,
2013-09-29 17:43:00,72.8,48.4,29.63,SE,138,0.0,9.0,42,0.00,,CLR,0.00,VWS V14.00,2013-09-29 22:43:00,
2013-09-29 17:48:00,72.5,48.1,29.63,SSE,155,6.0,9.0,42,0.00,,CLR,0.00,VWS V14.00,2013-09-29 22:48:00,
2013-09-29 17:54:00,72.3,48.6,29.63,SSE,154,0.0,7.0,43,0.00,,CLR,0.00,VWS V14.00,2013-09-29 22:54:00,
2013-09-29 17:58:00,72.1,48.4,29.63,SSE,155,0.0,7.0,43,0.00,,CLR,0.00,VWS V14.00,2013-09-29 22:58:00,
2013-09-29 18:03:00,71.8,48.1,29.63,SSE,151,0.0,0.0,43,0.00,,CLR,0.00,VWS V14.00,2013-09-29 23:03:00,
2013-09-29 18:08:00,71.7,48.0,29.63,SSE,150,4.0,6.0,43,0.00,,CLR,0.00,VWS V14.00,2013-09-29 23:08:00,
2013-09-29 18:13:00,71.6,47.9,29.63,SSE,161,0.0,0.0,43,0.00,,CLR,0.00,VWS V14.00,2013-09-29 23:13:00,
2013-09-29 18:18:00,71.4,47.8,29.63,SSE,159,0.0,7.0,43,0.00,,CLR,0.00,VWS V14.00,2013-09-29 23:18:00,
2013-09-29 18:23:00,71.2,48.2,29.63,SSE,159,0.0,6.0,44,0.00,,CLR,0.00,VWS V14.00,2013-09-29 23:23:00,
2013-09-29 18:29:00,70.8,48.4,29.62,SSE,158,0.0,6.0,45,0.00,,CLR,0.00,VWS V14.00,2013-09-29 23:29:00,
2013-09-29 18:34:00,70.5,48.8,29.62,SSE,158,0.0,0.0,46,0.00,,CLR,0.00,VWS V14.00,2013-09-29 23:34:00,
2013-09-29 18:39:00,70.2,49.0,29.62,SSE,158,0.0,0.0,47,0.00,,CLR,0.00,VWS V14.00,2013-09-29 23:39:00,
2013-09-29 18:44:00,69.9,48.8,29.62,SSE,158,4.0,5.0,47,0.00,,CLR,0.00,VWS V14.00,2013-09-29 23:44:00,
2013-09-29 18:49:00,69.7,48.6,29.61,SSE,158,0.0,5.0,47,0.00,,CLR,0.00,VWS V14.00,2013-09-29 23:49:00,
2013-09-29 18:54:00,69.5,48.4,29.61,SE,143,3.0,8.0,47,0.00,,CLR,0.00,VWS V14.00,2013-09-29 23:54:00,
2013-09-29 18:59:00,69.3,48.2,29.61,SE,143,0.0,8.0,47,0.00,,CLR,0.00,VWS V14.00,2013-09-29 23:59:00,
2013-09-29 19:04:00,69.1,48.0,29.61,SE,142,0.0,7.0,47,0.00,,CLR,0.00,VWS V14.00,2013-09-30 00:04:00,
2013-09-29 19:09:00,68.9,47.3,29.61,SE,141,0.0,8.0,46,0.00,,CLR,0.00,VWS V14.00,2013-09-30 00:09:00,
2013-09-29 19:14:00,68.7,47.7,29.61,SE,141,0.0,1.0,47,0.00,,CLR,0.00,VWS V14.00,2013-09-30 00:14:00,
2013-09-29 19:19:00,68.6,47.6,29.61,SE,141,0.0,6.0,47,0.00,,CLR,0.00,VWS V14.00,2013-09-30 00:19:00,
2013-09-29 19:24:00,68.4,47.4,29.61,SE,141,0.0,2.0,47,0.00,,CLR,0.00,VWS V14.00,2013-09-30 00:24:00,
2013-09-29 19:29:00,68.2,47.2,29.61,SE,141,0.0,4.0,47,0.00,,CLR,0.00,VWS V14.00,2013-09-30 00:29:00,
2013-09-29 19:34:00,67.9,47.5,29.61,SE,141,0.0,0.0,48,0.00,,CLR,0.00,VWS V14.00,2013-09-30 00:34:00,
2013-09-29 19:39:00,67.6,47.2,29.61,SE,141,0.0,0.0,48,0.00,,CLR,0.00,VWS V14.00,2013-09-30 00:39:00,
2013-09-29 19:44:00,67.3,47.5,29.61,SE,141,0.0,0.0,49,0.00,,CLR,0.00,VWS V14.00,2013-09-30 00:44:00,
2013-09-29 19:49:00,66.9,47.7,29.61,SE,141,0.0,5.0,50,0.00,,CLR,0.00,VWS V14.00,2013-09-30 00:49:00,
2013-09-29 19:54:00,66.6,47.9,29.61,SE,141,0.0,0.0,51,0.00,,CLR,0.00,VWS V14.00,2013-09-30 00:54:00,
2013-09-29 19:59:00,66.4,47.7,29.61,SE,141,0.0,0.0,51,0.00,,CLR,0.00,VWS V14.00,2013-09-30 00:59:00,
2013-09-29 20:04:00,66.2,48.1,29.60,SE,141,0.0,5.0,52,0.00,,CLR,0.00,VWS V14.00,2013-09-30 01:04:00,
2013-09-29 20:09:00,65.9,48.3,29.60,SE,141,0.0,5.0,53,0.00,,CLR,0.00,VWS V14.00,2013-09-30 01:09:00,
2013-09-29 20:14:00,65.6,48.0,29.60,SE,141,0.0,0.0,53,0.00,,CLR,0.00,VWS V14.00,2013-09-30 01:14:00,
2013-09-29 20:19:00,65.2,48.2,29.60,SE,141,0.0,0.0,54,0.00,,CLR,0.00,VWS V14.00,2013-09-30 01:19:00,
2013-09-29 20:24:00,64.9,48.4,29.60,SE,141,0.0,0.0,55,0.00,,CLR,0.00,VWS V14.00,2013-09-30 01:24:00,
2013-09-29 20:29:00,64.7,48.2,29.60,SE,141,5.0,5.0,55,0.00,,CLR,0.00,VWS V14.00,2013-09-30 01:29:00,
2013-09-29 20:34:00,64.5,48.5,29.60,SE,141,0.0,1.0,56,0.00,,CLR,0.00,VWS V14.00,2013-09-30 01:34:00,
2013-09-29 20:39:00,64.3,48.3,29.60,SE,141,0.0,3.0,56,0.00,,CLR,0.00,VWS V14.00,2013-09-30 01:39:00,
2013-09-29 20:44:00,64.3,48.3,29.60,SE,141,0.0,0.0,56,0.00,,CLR,0.00,VWS V14.00,2013-09-30 01:44:00,
2013-09-29 20:49:00,64.3,48.8,29.60,SE,141,0.0,3.0,57,0.00,,CLR,0.00,VWS V14.00,2013-09-30 01:49:00,
2013-09-29 20:54:00,64.2,48.2,29.60,SE,141,0.0,0.0,56,0.00,,CLR,0.00,VWS V14.00,2013-09-30 01:54:00,
2013-09-29 20:59:00,64.0,48.5,29.59,SE,141,0.0,4.0,57,0.00,,CLR,0.00,VWS V14.00,2013-09-30 01:59:00,
2013-09-29 21:04:00,63.9,48.4,29.59,SE,141,0.0,0.0,57,0.00,,CLR,0.00,VWS V14.00,2013-09-30 02:04:00,
2013-09-29 21:09:00,63.9,47.9,29.59,SE,141,0.0,0.0,56,0.00,,CLR,0.00,VWS V14.00,2013-09-30 02:09:00,
2013-09-29 21:14:00,63.7,48.2,29.59,SE,141,0.0,4.0,57,0.00,,CLR,0.00,VWS V14.00,2013-09-30 02:14:00,
2013-09-29 21:19:00,63.7,47.7,29.59,SE,141,0.0,8.0,56,0.00,,CLR,0.00,VWS V14.00,2013-09-30 02:19:00,
2013-09-29 21:24:00,63.6,47.6,29.59,SE,141,0.0,3.0,56,0.00,,CLR,0.00,VWS V14.00,2013-09-30 02:24:00,
2013-09-29 21:29:00,63.4,47.5,29.58,SE,141,0.0,5.0,56,0.00,,CLR,0.00,VWS V14.00,2013-09-30 02:29:00,
2013-09-29 21:34:00,63.4,47.5,29.58,SE,141,0.0,5.0,56,0.00,,CLR,0.00,VWS V14.00,2013-09-30 02:34:00,
2013-09-29 21:39:00,63.5,47.5,29.58,SE,141,5.0,7.0,56,0.00,,CLR,0.00,VWS V14.00,2013-09-30 02:39:00,
2013-09-29 21:44:00,63.4,47.5,29.58,SE,140,2.0,6.0,56,0.00,,CLR,0.00,VWS V14.00,2013-09-30 02:44:00,
2013-09-29 21:49:00,63.5,47.5,29.57,SE,140,0.0,6.0,56,0.00,,CLR,0.00,VWS V14.00,2013-09-30 02:49:00,
2013-09-29 21:54:00,63.6,47.6,29.58,SE,140,3.0,7.0,56,0.00,,CLR,0.00,VWS V14.00,2013-09-30 02:54:00,
2013-09-29 21:59:00,63.7,47.2,29.57,SE,140,0.0,7.0,55,0.00,,CLR,0.00,VWS V14.00,2013-09-30 02:59:00,
2013-09-29 22:04:00,63.7,47.7,29.57,SE,133,5.0,9.0,56,0.00,,CLR,0.00,VWS V14.00,2013-09-30 03:04:00,
2013-09-29 22:09:00,63.7,47.7,29.57,SE,135,0.0,9.0,56,0.00,,CLR,0.00,VWS V14.00,2013-09-30 03:09:00,
2013-09-29 22:15:00,63.7,47.7,29.56,SE,142,3.0,8.0,56,0.00,,CLR,0.00,VWS V14.00,2013-09-30 03:15:00,
2013-09-29 22:20:00,63.8,47.8,29.56,SE,142,4.0,8.0,56,0.00,,CLR,0.00,VWS V14.00,2013-09-30 03:20:00,
2013-09-29 22:24:00,63.8,47.3,29.56,SE,142,0.0,6.0,55,0.00,,CLR,0.00,VWS V14.00,2013-09-30 03:24:00,
2013-09-29 22:30:00,63.7,47.7,29.56,SE,141,1.0,6.0,56,0.00,,CLR,0.00,VWS V14.00,2013-09-30 03:30:00,
2013-09-29 22:35:00,63.8,47.3,29.56,SE,138,7.0,7.0,55,0.00,,CLR,0.00,VWS V14.00,2013-09-30 03:35:00,
2013-09-29 22:40:00,63.7,47.2,29.55,SE,137,0.0,0.0,55,0.00,,CLR,0.00,VWS V14.00,2013-09-30 03:40:00,
2013-09-29 22:45:00,63.8,47.3,29.55,SSE,147,2.0,7.0,55,0.00,,CLR,0.00,VWS V14.00,2013-09-30 03:45:00,
2013-09-29 22:50:00,63.9,47.4,29.55,SSE,147,0.0,0.0,55,0.00,,CLR,0.00,VWS V14.00,2013-09-30 03:50:00,
2013-09-29 22:55:00,63.7,47.2,29.54,SE,146,2.0,5.0,55,0.00,,CLR,0.00,VWS V14.00,2013-09-30 03:55:00,
2013-09-29 23:00:00,63.6,47.2,29.54,SSE,151,2.0,5.0,55,0.00,,CLR,0.00,VWS V14.00,2013-09-30 04:00:00,
2013-09-29 23:01:00,63.5,47.1,29.54,SSE,151,0.0,5.0,55,0.00,,CLR,0.00,VWS V14.00,2013-09-30 04:01:00,
2013-09-29 23:02:00,63.5,47.1,29.54,SSE,151,0.0,5.0,55,0.00,,CLR,0.00,VWS V14.00,2013-09-30 04:02:00,
2013-09-29 23:07:00,63.6,47.2,29.54,SSE,147,7.0,8.0,55,0.00,,CLR,0.00,VWS V14.00,2013-09-30 04:07:00,
2013-09-29 23:12:00,63.6,47.2,29.54,SSE,153,0.0,8.0,55,0.00,,CLR,0.00,VWS V14.00,2013-09-30 04:12:00,
2013-09-29 23:17:00,63.7,47.2,29.54,SSE,161,1.0,9.0,55,0.00,,CLR,0.00,VWS V14.00,2013-09-30 04:17:00,
2013-09-29 23:22:00,63.6,47.2,29.53,SSE,151,6.0,6.0,55,0.00,,CLR,0.00,VWS V14.00,2013-09-30 04:22:00,
2013-09-29 23:27:00,63.6,47.2,29.53,SSE,153,0.0,7.0,55,0.00,,CLR,0.00,VWS V14.00,2013-09-30 04:27:00,
2013-09-29 23:32:00,63.5,47.1,29.53,SSE,160,0.0,6.0,55,0.00,,CLR,0.00,VWS V14.00,2013-09-30 04:32:00,
2013-09-29 23:37:00,63.4,47.5,29.53,SSE,166,2.0,8.0,56,0.00,,CLR,0.00,VWS V14.00,2013-09-30 04:37:00,
2013-09-29 23:42:00,63.4,47.5,29.53,SSE,166,0.0,8.0,56,0.00,,CLR,0.00,VWS V14.00,2013-09-30 04:42:00,
2013-09-29 23:47:00,63.4,47.5,29.53,South,170,0.0,11.0,56,0.00,,CLR,0.00,VWS V14.00,2013-09-30 04:47:00,
2013-09-29 23:52:00,63.2,47.3,29.53,South,172,3.0,10.0,56,0.00,,CLR,0.00,VWS V14.00,2013-09-30 04:52:00,
2013-09-29 23:57:00,63.1,47.6,29.52,SSE,158,2.0,11.0,57,0.00,,CLR,0.00,VWS V14.00,2013-09-30 04:57:00,